Time;durP1;ratioP1;P1;durP2;ratioP2;P2;SDS_P1;SDS_P2;PMS_P1;PMS_P2;Temp;Humidity;BMP_temperature;BMP_pressure;BME280_temperature;BME280_humidity;BME280_pressure;Samples;Min_cycle;Max_cycle;Signal;HPM_P1;HPM_P2
2023/03/14 00:00:14;;;;;;;0.30;0.30;;;10.10;80.70;;;;;;5071887;28;20041;-67
2023/03/14 00:02:40;;;;;;;0.00;0.00;;;10.10;80.70;;;;;;5092125;28;20054;-66
2023/03/14 00:05:07;;;;;;;0.10;0.10;;;10.10;80.80;;;;;;5083608;28;20037;-67
2023/03/14 00:07:35;;;;;;;0.00;0.00;;;10.10;80.70;;;;;;5071705;28;20082;-67
2023/03/14 00:10:04;;;;;;;0.20;0.20;;;10.00;80.80;;;;;;5082254;28;20072;-67
2023/03/14 00:12:29;;;;;;;0.00;0.00;;;10.00;80.80;;;;;;5079913;28;20443;-66
2023/03/14 00:14:55;;;;;;;3.55;1.20;;;10.00;81.00;;;;;;5076192;28;20035;-67
2023/03/14 00:17:21;;;;;;;0.43;0.43;;;9.90;81.30;;;;;;5091684;28;20054;-67
2023/03/14 00:19:46;;;;;;;0.30;0.30;;;9.90;81.20;;;;;;5087825;28;20037;-66
2023/03/14 00:22:12;;;;;;;0.00;0.00;;;9.90;81.50;;;;;;5078604;28;20040;-67
2023/03/14 00:24:37;;;;;;;0.00;0.00;;;9.80;81.60;;;;;;5083028;28;20787;-66
2023/03/14 00:27:03;;;;;;;0.00;0.00;;;9.80;81.80;;;;;;5075636;28;20056;-67
2023/03/14 00:29:29;;;;;;;0.00;0.00;;;9.80;81.70;;;;;;5090117;28;20242;-67
2023/03/14 00:31:54;;;;;;;0.00;0.00;;;9.70;82.30;;;;;;5090606;28;20039;-67
2023/03/14 00:34:20;;;;;;;0.00;0.00;;;9.70;82.50;;;;;;5075352;28;20090;-66
2023/03/14 00:36:45;;;;;;;0.00;0.00;;;9.70;82.60;;;;;;5072806;28;20078;-66
2023/03/14 00:39:11;;;;;;;0.00;0.00;;;9.60;82.60;;;;;;5083312;28;20048;-66
2023/03/14 00:41:36;;;;;;;0.00;0.00;;;9.60;82.60;;;;;;5053813;28;20533;-67
2023/03/14 00:44:02;;;;;;;0.00;0.00;;;9.60;82.60;;;;;;5070753;28;20040;-67
2023/03/14 00:46:28;;;;;;;0.00;0.00;;;9.50;82.60;;;;;;5055879;28;20382;-67
2023/03/14 00:48:53;;;;;;;1.23;0.15;;;9.50;83.10;;;;;;5058197;28;20045;-67
2023/03/14 00:51:19;;;;;;;0.00;0.00;;;9.40;83.10;;;;;;5070320;28;20067;-67
2023/03/14 00:53:45;;;;;;;0.00;0.00;;;9.30;83.30;;;;;;5053197;28;20049;-67
2023/03/14 00:56:12;;;;;;;0.00;0.00;;;9.40;83.10;;;;;;5084944;28;20036;-66
2023/03/14 00:58:39;;;;;;;0.00;0.00;;;9.30;83.30;;;;;;5072047;28;20841;-66
2023/03/14 01:01:23;;;;;;;1.65;0.80;;;9.30;83.40;;;;;;5079805;28;20071;-67
2023/03/14 01:03:52;;;;;;;0.00;0.00;;;9.30;83.60;;;;;;5089837;28;20119;-67
2023/03/14 01:06:21;;;;;;;0.00;0.00;;;9.30;83.90;;;;;;5071661;28;20841;-67
2023/03/14 01:08:47;;;;;;;0.00;0.00;;;9.30;84.20;;;;;;5089684;28;20040;-67
2023/03/14 01:11:19;;;;;;;0.10;0.10;;;9.30;84.40;;;;;;5084734;28;20131;-67
2023/03/14 01:13:45;;;;;;;0.00;0.00;;;9.30;84.40;;;;;;5084909;28;20226;-67
2023/03/14 01:16:12;;;;;;;0.00;0.00;;;9.30;84.30;;;;;;5058456;28;20468;-66
2023/03/14 01:18:40;;;;;;;0.20;0.20;;;9.30;84.40;;;;;;5084745;28;20060;-67
2023/03/14 01:21:20;;;;;;;0.10;0.10;;;9.50;85.10;;;;;;5090612;28;20044;-66
2023/03/14 01:23:47;;;;;;;0.00;0.00;;;9.50;84.50;;;;;;5083842;28;20043;-67
2023/03/14 01:26:15;;;;;;;1.17;1.00;;;9.50;84.90;;;;;;5081823;28;20071;-67
2023/03/14 01:28:41;;;;;;;0.15;0.15;;;9.60;85.00;;;;;;5071599;28;20048;-67
2023/03/14 01:31:09;;;;;;;0.00;0.00;;;9.70;84.60;;;;;;5086704;28;20051;-67
2023/03/14 01:33:35;;;;;;;0.00;0.00;;;9.70;84.90;;;;;;5078118;28;20095;-67
2023/03/14 01:36:04;;;;;;;0.00;0.00;;;9.70;85.10;;;;;;5084032;28;20584;-66
2023/03/14 01:38:34;;;;;;;0.00;0.00;;;9.80;85.10;;;;;;5086166;28;20461;-67
2023/03/14 01:41:00;;;;;;;0.30;0.30;;;9.70;85.10;;;;;;5089967;28;20047;-67
2023/03/14 01:43:26;;;;;;;0.00;0.00;;;9.80;85.20;;;;;;5089462;28;21014;-67
2023/03/14 01:46:04;;;;;;;0.00;0.00;;;9.80;85.00;;;;;;5081253;28;20047;-66
2023/03/14 01:49:04;;;;;;;0.00;0.00;;;9.70;85.10;;;;;;5069880;28;20045;-67
2023/03/14 01:51:35;;;;;;;0.00;0.00;;;9.80;85.30;;;;;;5027995;28;20056;-67
2023/03/14 01:54:18;;;;;;;0.00;0.00;;;9.60;86.60;;;;;;5069464;28;20173;-66
2023/03/14 01:56:50;;;;;;;0.00;0.00;;;9.60;86.70;;;;;;5034504;28;20048;-66
2023/03/14 01:59:16;;;;;;;0.10;0.10;;;9.60;86.70;;;;;;5069528;28;20040;-66
2023/03/14 02:01:44;;;;;;;0.00;0.00;;;9.50;87.10;;;;;;5069217;28;20075;-66
2023/03/14 02:04:10;;;;;;;0.00;0.00;;;9.50;87.20;;;;;;5082359;28;20055;-66
2023/03/14 02:06:56;;;;;;;0.00;0.00;;;9.40;87.80;;;;;;5069387;28;20179;-66
2023/03/14 02:09:22;;;;;;;0.10;0.10;;;9.40;88.00;;;;;;5078660;28;20073;-66
2023/03/14 02:11:49;;;;;;;0.00;0.00;;;9.40;88.00;;;;;;5065483;28;20576;-66
2023/03/14 02:14:29;;;;;;;0.00;0.00;;;9.30;88.10;;;;;;5079299;28;20416;-66
2023/03/14 02:16:55;;;;;;;0.00;0.00;;;9.30;88.10;;;;;;5080662;28;20043;-66
2023/03/14 02:19:37;;;;;;;0.00;0.00;;;9.20;88.20;;;;;;5068960;28;20122;-67
2023/03/14 02:22:10;;;;;;;0.15;0.15;;;9.30;87.80;;;;;;5069098;28;20127;-66
2023/03/14 02:24:54;;;;;;;0.20;0.20;;;9.30;87.80;;;;;;5069155;28;20044;-66
2023/03/14 02:27:20;;;;;;;0.00;0.00;;;9.30;88.20;;;;;;5084053;28;20064;-67
2023/03/14 02:29:59;;;;;;;0.00;0.00;;;9.30;88.10;;;;;;5087562;28;20058;-66
2023/03/14 02:32:27;;;;;;;0.00;0.00;;;9.40;88.30;;;;;;5076041;28;20036;-66
2023/03/14 02:34:57;;;;;;;0.00;0.00;;;9.40;88.20;;;;;;5071215;28;20105;-66
2023/03/14 02:37:28;;;;;;;0.00;0.00;;;9.30;88.20;;;;;;5048118;28;20047;-66
2023/03/14 02:39:54;;;;;;;0.00;0.00;;;9.20;88.90;;;;;;5089259;28;20047;-67
2023/03/14 02:42:21;;;;;;;0.00;0.00;;;9.20;89.80;;;;;;5072521;28;20032;-67
2023/03/14 02:44:59;;;;;;;0.10;0.10;;;9.20;89.80;;;;;;5069341;28;20048;-67
2023/03/14 02:47:29;;;;;;;5.32;1.90;;;9.10;90.40;;;;;;5068994;28;20033;-66
2023/03/14 02:50:07;;;;;;;0.00;0.00;;;9.10;90.50;;;;;;5073368;28;20044;-66
2023/03/14 02:52:33;;;;;;;0.00;0.00;;;9.10;90.20;;;;;;5087906;28;20044;-67
2023/03/14 02:54:59;;;;;;;0.10;0.10;;;9.00;90.60;;;;;;5088144;28;20040;-66
2023/03/14 02:57:25;;;;;;;0.65;0.43;;;9.00;90.70;;;;;;5088909;28;20040;-67
2023/03/14 02:59:50;;;;;;;0.40;0.40;;;9.00;91.00;;;;;;5074823;28;20068;-67
2023/03/14 03:02:16;;;;;;;0.32;0.32;;;9.00;90.80;;;;;;5085767;28;20501;-66
2023/03/14 03:04:42;;;;;;;0.52;0.52;;;9.00;90.80;;;;;;5081394;28;20036;-67
2023/03/14 03:07:07;;;;;;;0.00;0.00;;;9.10;90.60;;;;;;5082882;28;20089;-66
2023/03/14 03:09:33;;;;;;;0.20;0.20;;;9.00;90.50;;;;;;5069417;28;20502;-66
2023/03/14 03:11:59;;;;;;;0.70;0.70;;;9.00;90.80;;;;;;5061278;28;20107;-67
2023/03/14 03:14:24;;;;;;;0.00;0.00;;;9.00;90.90;;;;;;5068677;28;20105;-67
2023/03/14 03:16:50;;;;;;;2.38;0.57;;;9.00;90.70;;;;;;5080590;28;20040;-67
2023/03/14 03:19:17;;;;;;;3.13;2.83;;;9.00;90.90;;;;;;5081660;28;20040;-67
2023/03/14 03:21:43;;;;;;;0.00;0.00;;;9.10;90.60;;;;;;5079424;28;20056;-66
2023/03/14 03:24:09;;;;;;;0.00;0.00;;;9.10;90.60;;;;;;5084145;28;20044;-67
2023/03/14 03:26:36;;;;;;;0.10;0.10;;;9.10;90.50;;;;;;5054227;28;20129;-66
2023/03/14 03:29:02;;;;;;;0.00;0.00;;;9.10;90.50;;;;;;5084238;28;20059;-66
2023/03/14 03:31:27;;;;;;;0.00;0.00;;;9.10;90.50;;;;;;5073486;28;20058;-67
2023/03/14 03:33:53;;;;;;;4.75;2.30;;;9.10;90.60;;;;;;5087972;28;20072;-67
2023/03/14 03:36:23;;;;;;;0.03;0.03;;;9.10;90.60;;;;;;5075459;28;20048;-67
2023/03/14 03:38:49;;;;;;;0.00;0.00;;;9.10;90.50;;;;;;5086780;28;20046;-67
2023/03/14 03:41:15;;;;;;;0.35;0.35;;;9.10;90.40;;;;;;5086695;28;20531;-67
2023/03/14 03:43:40;;;;;;;0.00;0.00;;;9.10;90.00;;;;;;5071721;28;20033;-67
2023/03/14 03:46:18;;;;;;;0.55;0.55;;;9.10;90.20;;;;;;5051519;28;20110;-66
2023/03/14 03:48:58;;;;;;;0.00;0.00;;;9.10;90.20;;;;;;5052159;28;20048;-66
2023/03/14 03:51:24;;;;;;;1.25;1.20;;;9.10;90.10;;;;;;5058142;28;20044;-67
2023/03/14 03:53:49;;;;;;;0.00;0.00;;;9.10;90.10;;;;;;5071857;28;20063;-66
2023/03/14 03:56:15;;;;;;;0.10;0.10;;;9.10;90.20;;;;;;5071369;28;20067;-67
2023/03/14 03:58:41;;;;;;;0.90;0.90;;;9.10;90.00;;;;;;5071721;28;20500;-66
2023/03/14 04:01:08;;;;;;;0.00;0.00;;;9.10;89.90;;;;;;5075157;28;20105;-66
2023/03/14 04:03:34;;;;;;;0.00;0.00;;;9.10;89.90;;;;;;5092138;28;20169;-66
2023/03/14 04:06:06;;;;;;;0.00;0.00;;;9.10;89.80;;;;;;5091537;28;20146;-66
2023/03/14 04:08:31;;;;;;;0.15;0.15;;;9.10;89.70;;;;;;5091201;28;20429;-66
2023/03/14 04:10:59;;;;;;;0.00;0.00;;;9.10;89.80;;;;;;5080029;28;20071;-66
2023/03/14 04:13:25;;;;;;;1.85;1.75;;;9.10;90.00;;;;;;5080090;28;20044;-66
2023/03/14 04:15:51;;;;;;;0.00;0.00;;;9.10;89.90;;;;;;5083500;28;20047;-66
2023/03/14 04:18:17;;;;;;;0.20;0.20;;;9.10;89.80;;;;;;5090945;28;20408;-66
2023/03/14 04:20:42;;;;;;;0.00;0.00;;;9.10;89.60;;;;;;5073530;28;20045;-67
2023/03/14 04:23:08;;;;;;;0.00;0.00;;;9.10;89.80;;;;;;5091485;28;20492;-67
2023/03/14 04:25:34;;;;;;;0.00;0.00;;;9.10;89.60;;;;;;5083296;28;20051;-66
2023/03/14 04:27:59;;;;;;;0.00;0.00;;;9.10;89.60;;;;;;5090237;28;20052;-66
2023/03/14 04:30:25;;;;;;;0.00;0.00;;;9.20;89.50;;;;;;5090162;28;20078;-66
2023/03/14 04:32:50;;;;;;;0.00;0.00;;;9.20;89.50;;;;;;5090709;28;20043;-66
2023/03/14 04:35:16;;;;;;;0.00;0.00;;;9.10;89.70;;;;;;5075186;28;20060;-66
2023/03/14 04:37:43;;;;;;;0.00;0.00;;;9.10;89.70;;;;;;5072903;28;20048;-66
2023/03/14 04:40:09;;;;;;;0.00;0.00;;;9.20;89.60;;;;;;5069723;28;20052;-66
2023/03/14 04:42:35;;;;;;;0.00;0.00;;;9.20;90.10;;;;;;5071005;28;20433;-66
2023/03/14 04:45:01;;;;;;;0.00;0.00;;;9.10;90.80;;;;;;5075687;28;20044;-66
2023/03/14 04:47:28;;;;;;;0.00;0.00;;;9.10;90.70;;;;;;5070514;28;20053;-66
2023/03/14 04:49:53;;;;;;;0.00;0.00;;;9.00;91.30;;;;;;5073206;28;20118;-66
2023/03/14 04:52:19;;;;;;;0.90;0.90;;;9.00;91.70;;;;;;5075896;28;20079;-67
2023/03/14 04:54:45;;;;;;;0.80;0.80;;;8.90;91.60;;;;;;5081902;28;20123;-66
2023/03/14 04:57:10;;;;;;;0.30;0.30;;;9.00;91.70;;;;;;5070469;28;20052;-66
2023/03/14 04:59:36;;;;;;;2.10;1.65;;;8.90;92.20;;;;;;5068020;28;20052;-66
2023/03/14 05:02:01;;;;;;;0.00;0.00;;;8.90;92.40;;;;;;5084620;28;20485;-67
2023/03/14 05:04:27;;;;;;;0.00;0.00;;;8.90;92.50;;;;;;5036172;28;20133;-66
2023/03/14 05:06:53;;;;;;;0.73;0.73;;;8.80;92.50;;;;;;5087300;28;20081;-66
2023/03/14 05:09:18;;;;;;;0.00;0.00;;;8.80;92.30;;;;;;5084540;28;20404;-66
2023/03/14 05:11:44;;;;;;;0.00;0.00;;;8.80;92.70;;;;;;5089024;28;20036;-66
2023/03/14 05:14:09;;;;;;;0.00;0.00;;;8.70;92.90;;;;;;5080336;28;20048;-67
2023/03/14 05:16:35;;;;;;;0.00;0.00;;;8.70;92.90;;;;;;5081874;28;20417;-66
2023/03/14 05:19:01;;;;;;;0.00;0.00;;;8.70;92.90;;;;;;5088485;28;20039;-67
2023/03/14 05:21:27;;;;;;;0.00;0.00;;;8.70;92.90;;;;;;5075714;28;20052;-66
2023/03/14 05:23:52;;;;;;;0.00;0.00;;;8.80;92.90;;;;;;5085656;28;20032;-67
2023/03/14 05:26:18;;;;;;;0.10;0.10;;;8.80;93.00;;;;;;5089599;28;20052;-66
2023/03/14 05:28:44;;;;;;;0.38;0.38;;;8.80;93.20;;;;;;5071415;28;20504;-66
2023/03/14 05:31:10;;;;;;;1.58;1.48;;;8.80;93.10;;;;;;5076465;28;20493;-66
2023/03/14 05:33:36;;;;;;;0.00;0.00;;;8.90;92.90;;;;;;5078338;28;20032;-66
2023/03/14 05:36:02;;;;;;;0.00;0.00;;;8.80;93.20;;;;;;5077259;28;20157;-67
2023/03/14 05:38:27;;;;;;;0.52;0.52;;;8.90;93.40;;;;;;5073399;28;20124;-66
2023/03/14 05:40:53;;;;;;;0.00;0.00;;;8.80;93.30;;;;;;5076697;28;20040;-67
2023/03/14 05:43:18;;;;;;;0.00;0.00;;;8.80;93.30;;;;;;5087980;28;20061;-67
2023/03/14 05:45:44;;;;;;;0.00;0.00;;;8.80;93.50;;;;;;5072152;28;20659;-66
2023/03/14 05:48:10;;;;;;;0.00;0.00;;;8.80;93.50;;;;;;5089957;28;20032;-66
2023/03/14 05:50:36;;;;;;;0.00;0.00;;;8.80;93.40;;;;;;5084730;28;20048;-67
2023/03/14 05:53:01;;;;;;;0.00;0.00;;;8.80;93.40;;;;;;5072963;28;20132;-66
2023/03/14 05:55:27;;;;;;;0.40;0.40;;;8.90;93.30;;;;;;5068758;28;20119;-67
2023/03/14 05:57:53;;;;;;;0.00;0.00;;;8.80;93.20;;;;;;5068939;28;20489;-66
2023/03/14 06:00:20;;;;;;;0.00;0.00;;;8.80;93.20;;;;;;5068251;28;20051;-66
2023/03/14 06:02:45;;;;;;;0.00;0.00;;;8.70;93.00;;;;;;5050376;28;20040;-66
2023/03/14 06:05:12;;;;;;;0.00;0.00;;;8.60;92.30;;;;;;5067724;28;20405;-67
2023/03/14 06:07:37;;;;;;;0.00;0.00;;;8.40;92.20;;;;;;5050126;28;20044;-67
2023/03/14 06:10:04;;;;;;;0.00;0.00;;;8.30;92.00;;;;;;5032931;28;20097;-67
2023/03/14 06:12:29;;;;;;;0.00;0.00;;;8.10;91.90;;;;;;5054176;28;20048;-66
2023/03/14 06:14:55;;;;;;;0.50;0.50;;;8.00;91.90;;;;;;5068694;28;20039;-67
2023/03/14 06:17:20;;;;;;;0.05;0.05;;;8.00;91.60;;;;;;5063398;28;20070;-66
2023/03/14 06:19:46;;;;;;;0.00;0.00;;;7.80;91.40;;;;;;5066194;28;20849;-67
2023/03/14 06:22:11;;;;;;;0.00;0.00;;;7.60;91.10;;;;;;5066592;28;20047;-67
2023/03/14 06:24:37;;;;;;;0.05;0.05;;;7.50;90.90;;;;;;5065986;28;20041;-68
2023/03/14 06:27:03;;;;;;;0.85;0.85;;;7.50;90.60;;;;;;5067320;28;20055;-67
2023/03/14 06:29:29;;;;;;;0.00;0.00;;;7.20;89.60;;;;;;5048504;28;20087;-67
2023/03/14 06:31:55;;;;;;;0.00;0.00;;;7.00;89.30;;;;;;5068842;28;20044;-67
2023/03/14 06:34:21;;;;;;;0.00;0.00;;;6.80;89.20;;;;;;5066100;28;20037;-67
2023/03/14 06:36:47;;;;;;;0.10;0.10;;;6.60;89.30;;;;;;5068182;28;20052;-67
2023/03/14 06:39:12;;;;;;;0.00;0.00;;;6.50;89.20;;;;;;5068906;28;20128;-67
2023/03/14 06:41:38;;;;;;;0.00;0.00;;;6.40;89.30;;;;;;5069492;28;20049;-67
2023/03/14 06:44:04;;;;;;;0.00;0.00;;;6.30;89.50;;;;;;5075709;28;20044;-67
2023/03/14 06:46:30;;;;;;;0.00;0.00;;;6.30;89.40;;;;;;5069641;28;20040;-67
2023/03/14 06:48:56;;;;;;;0.00;0.00;;;6.10;89.50;;;;;;5063770;28;20041;-68
2023/03/14 06:51:22;;;;;;;0.00;0.00;;;6.10;89.30;;;;;;5069404;28;20454;-67
2023/03/14 06:53:48;;;;;;;0.00;0.00;;;6.10;88.80;;;;;;5037812;28;20099;-68
2023/03/14 06:56:14;;;;;;;0.75;0.75;;;6.00;88.80;;;;;;5072611;28;20039;-65
2023/03/14 06:58:40;;;;;;;0.10;0.10;;;5.90;88.30;;;;;;5071256;28;20052;-67
2023/03/14 07:01:06;;;;;;;0.10;0.10;;;5.80;88.40;;;;;;5070218;28;20037;-67
2023/03/14 07:03:31;;;;;;;0.00;0.00;;;5.80;88.20;;;;;;5072176;28;20063;-66
2023/03/14 07:05:57;;;;;;;0.70;0.70;;;5.70;87.80;;;;;;5075406;28;20063;-66
2023/03/14 07:08:23;;;;;;;0.00;0.00;;;5.60;88.10;;;;;;5055866;28;20481;-65
2023/03/14 07:10:48;;;;;;;0.00;0.00;;;5.60;88.40;;;;;;5055384;28;20041;-65
2023/03/14 07:13:14;;;;;;;0.00;0.00;;;5.50;88.60;;;;;;5058776;28;20032;-66
2023/03/14 07:15:39;;;;;;;0.00;0.00;;;5.70;88.10;;;;;;5051900;28;20063;-72
2023/03/14 07:18:05;;;;;;;0.00;0.00;;;5.60;88.30;;;;;;5068865;28;20450;-66
2023/03/14 07:20:32;;;;;;;0.00;0.00;;;5.60;88.00;;;;;;5063603;28;20044;-65
2023/03/14 07:22:59;;;;;;;0.00;0.00;;;5.70;87.40;;;;;;5082812;28;20494;-64
2023/03/14 07:25:26;;;;;;;0.00;0.00;;;5.70;87.30;;;;;;5053012;28;20532;-65
2023/03/14 07:27:52;;;;;;;0.00;0.00;;;5.60;87.00;;;;;;5071654;28;20497;-66
2023/03/14 07:30:17;;;;;;;0.00;0.00;;;5.70;86.90;;;;;;5071777;28;20052;-65
2023/03/14 07:32:43;;;;;;;0.10;0.10;;;5.70;86.80;;;;;;5072229;28;20119;-63
2023/03/14 07:35:09;;;;;;;0.00;0.00;;;5.70;86.70;;;;;;5075722;28;20052;-63
2023/03/14 07:37:34;;;;;;;0.00;0.00;;;5.60;86.80;;;;;;5085948;28;20032;-65
2023/03/14 07:40:00;;;;;;;0.00;0.00;;;5.50;87.10;;;;;;5090081;28;20058;-63
2023/03/14 07:42:26;;;;;;;0.00;0.00;;;5.60;87.50;;;;;;5073573;28;20051;-63
2023/03/14 07:44:51;;;;;;;0.00;0.00;;;5.60;87.20;;;;;;5091709;28;20066;-62
2023/03/14 07:47:17;;;;;;;0.00;0.00;;;5.60;87.50;;;;;;5091799;28;20038;-63
2023/03/14 07:49:42;;;;;;;0.00;0.00;;;5.70;87.60;;;;;;5091200;28;20056;-63
2023/03/14 07:52:08;;;;;;;0.00;0.00;;;5.70;87.40;;;;;;5091805;28;20043;-64
2023/03/14 07:54:34;;;;;;;0.00;0.00;;;5.70;87.30;;;;;;5078730;28;20113;-64
2023/03/14 07:57:00;;;;;;;0.00;0.00;;;5.70;87.30;;;;;;5082387;28;20032;-64
2023/03/14 07:59:27;;;;;;;0.00;0.00;;;5.60;87.40;;;;;;5070152;28;20064;-63
2023/03/14 08:01:53;;;;;;;8.68;3.83;;;5.70;87.10;;;;;;5062369;28;20401;-63
2023/03/14 08:04:18;;;;;;;0.00;0.00;;;5.70;86.70;;;;;;5068702;28;20058;-64
2023/03/14 08:06:44;;;;;;;0.10;0.10;;;5.80;86.00;;;;;;5050612;28;20041;-63
2023/03/14 08:09:10;;;;;;;0.00;0.00;;;5.80;86.20;;;;;;5068021;28;20045;-64
2023/03/14 08:11:36;;;;;;;0.00;0.00;;;5.80;85.90;;;;;;5035042;28;20102;-63
2023/03/14 08:14:02;;;;;;;0.00;0.00;;;5.80;85.90;;;;;;5067256;28;20041;-63
2023/03/14 08:16:27;;;;;;;0.00;0.00;;;5.90;86.00;;;;;;5069480;28;20036;-63
2023/03/14 08:18:53;;;;;;;0.00;0.00;;;6.00;85.20;;;;;;5067583;28;20056;-63
2023/03/14 08:21:19;;;;;;;0.00;0.00;;;5.90;85.40;;;;;;5069800;28;20037;-63
2023/03/14 08:23:44;;;;;;;0.00;0.00;;;5.90;85.50;;;;;;5066616;28;20468;-63
2023/03/14 08:26:10;;;;;;;0.03;0.03;;;6.00;85.50;;;;;;5067132;28;20135;-64
2023/03/14 08:28:36;;;;;;;0.00;0.00;;;5.90;85.70;;;;;;5067419;28;20044;-63
2023/03/14 08:31:02;;;;;;;0.00;0.00;;;5.90;85.70;;;;;;5069540;28;20062;-63
2023/03/14 08:33:28;;;;;;;0.10;0.10;;;6.00;85.90;;;;;;5066909;28;20056;-63
2023/03/14 08:35:56;;;;;;;0.00;0.00;;;6.00;86.00;;;;;;5069935;28;20040;-63
2023/03/14 08:38:21;;;;;;;0.10;0.10;;;6.00;85.90;;;;;;5068810;28;20049;-63
2023/03/14 08:40:47;;;;;;;0.22;0.22;;;6.10;85.80;;;;;;5065114;28;20044;-64
2023/03/14 08:43:12;;;;;;;0.10;0.10;;;6.20;84.50;;;;;;5066528;28;20095;-63
2023/03/14 08:45:38;;;;;;;0.00;0.00;;;6.20;84.20;;;;;;5067368;28;20404;-63
2023/03/14 08:48:04;;;;;;;1.40;1.38;;;6.20;83.90;;;;;;5067958;28;20028;-63
2023/03/14 08:50:30;;;;;;;0.03;0.03;;;6.40;84.00;;;;;;5069250;28;20061;-64
2023/03/14 08:52:58;;;;;;;0.00;0.00;;;6.50;83.60;;;;;;5044646;28;20044;-63
2023/03/14 08:55:23;;;;;;;0.00;0.00;;;6.60;83.30;;;;;;5067702;28;20052;-63
2023/03/14 08:57:49;;;;;;;0.10;0.10;;;6.70;82.60;;;;;;5066299;28;20043;-63
2023/03/14 09:00:15;;;;;;;0.08;0.08;;;6.60;81.70;;;;;;5068390;28;20061;-63
2023/03/14 09:02:42;;;;;;;0.00;0.00;;;6.60;82.00;;;;;;5067146;28;20572;-63
2023/03/14 09:05:10;;;;;;;0.00;0.00;;;6.60;81.80;;;;;;5066589;28;20055;-63
2023/03/14 09:07:36;;;;;;;0.10;0.10;;;6.60;82.10;;;;;;5067282;28;20089;-63
2023/03/14 09:10:02;;;;;;;0.00;0.00;;;6.50;82.40;;;;;;5068304;28;20086;-63
2023/03/14 09:12:28;;;;;;;0.00;0.00;;;6.60;82.80;;;;;;5067932;28;20124;-63
2023/03/14 09:14:53;;;;;;;0.10;0.10;;;6.60;82.80;;;;;;5064909;28;20127;-63
2023/03/14 09:17:19;;;;;;;0.10;0.10;;;6.50;82.10;;;;;;5069172;28;20412;-63
2023/03/14 09:19:44;;;;;;;0.00;0.00;;;6.50;80.90;;;;;;5066407;28;20044;-63
2023/03/14 09:22:10;;;;;;;0.00;0.00;;;6.50;80.40;;;;;;5066008;28;20047;-63
2023/03/14 09:24:36;;;;;;;0.10;0.10;;;6.50;78.20;;;;;;5069201;28;20136;-63
2023/03/14 09:27:01;;;;;;;0.05;0.05;;;6.60;78.10;;;;;;5066914;28;20061;-63
2023/03/14 09:29:27;;;;;;;0.03;0.03;;;6.60;77.10;;;;;;5067908;28;20119;-62
2023/03/14 09:31:53;;;;;;;1.00;0.95;;;6.70;77.10;;;;;;5067585;28;20660;-63
2023/03/14 09:34:18;;;;;;;0.00;0.00;;;6.60;77.70;;;;;;5043508;28;20051;-63
2023/03/14 09:36:44;;;;;;;0.30;0.30;;;6.60;75.10;;;;;;5067954;28;20072;-63
2023/03/14 09:39:11;;;;;;;0.00;0.00;;;6.70;75.20;;;;;;5068365;28;20040;-63
2023/03/14 09:41:43;;;;;;;0.00;0.00;;;6.60;74.80;;;;;;5067099;28;20611;-63
2023/03/14 09:44:16;;;;;;;0.00;0.00;;;6.60;73.50;;;;;;5066490;28;20581;-63
2023/03/14 09:46:47;;;;;;;0.10;0.10;;;6.60;72.50;;;;;;5065508;28;20609;-63
2023/03/14 09:49:23;;;;;;;0.10;0.10;;;6.80;72.10;;;;;;5067221;28;20048;-63
2023/03/14 09:51:52;;;;;;;0.65;0.63;;;6.80;70.90;;;;;;5048985;28;20036;-63
2023/03/14 09:54:42;;;;;;;0.03;0.03;;;6.80;71.00;;;;;;5049701;28;20052;-63
2023/03/14 09:57:13;;;;;;;0.00;0.00;;;6.80;71.40;;;;;;5067494;28;20043;-63
2023/03/14 09:59:41;;;;;;;0.00;0.00;;;6.90;70.30;;;;;;5067315;28;20036;-63
2023/03/14 10:02:24;;;;;;;1.60;1.50;;;6.90;69.10;;;;;;5066932;28;20809;-63
2023/03/14 10:04:52;;;;;;;0.00;0.00;;;6.80;70.20;;;;;;5067146;28;20438;-63
2023/03/14 10:07:29;;;;;;;0.00;0.00;;;6.70;71.80;;;;;;5067418;28;20158;-63
2023/03/14 10:09:54;;;;;;;0.10;0.10;;;6.80;70.20;;;;;;5067722;28;20058;-63
2023/03/14 10:12:31;;;;;;;0.00;0.00;;;6.70;70.20;;;;;;5066057;28;20043;-63
2023/03/14 10:15:03;;;;;;;0.00;0.00;;;6.70;68.90;;;;;;5066261;28;20041;-63
2023/03/14 10:17:30;;;;;;;0.00;0.00;;;6.80;68.20;;;;;;5066760;28;20169;-63
2023/03/14 10:19:59;;;;;;;0.00;0.00;;;6.90;67.50;;;;;;5068714;28;20092;-63
2023/03/14 10:22:31;;;;;;;1.55;1.27;;;6.90;67.70;;;;;;5050283;28;20401;-63
2023/03/14 10:25:02;;;;;;;0.00;0.00;;;6.90;65.60;;;;;;5065340;28;20040;-63
2023/03/14 10:27:33;;;;;;;0.90;0.90;;;6.90;66.30;;;;;;5060580;28;20057;-62
2023/03/14 10:30:02;;;;;;;0.00;0.00;;;7.00;64.20;;;;;;5067192;28;20124;-63
2023/03/14 10:32:45;;;;;;;0.00;0.00;;;6.90;64.50;;;;;;5065916;28;20071;-63
2023/03/14 10:35:13;;;;;;;0.00;0.00;;;6.90;62.60;;;;;;5067249;28;20033;-63
2023/03/14 10:38:01;;;;;;;0.00;0.00;;;6.90;63.10;;;;;;5066114;28;20067;-63
2023/03/14 10:40:38;;;;;;;2.70;0.65;;;6.80;61.70;;;;;;5065474;28;20543;-63
2023/03/14 10:43:07;;;;;;;0.00;0.00;;;6.90;61.90;;;;;;5067519;28;20037;-63
2023/03/14 10:45:38;;;;;;;0.10;0.10;;;6.90;57.00;;;;;;5068909;28;20051;-63
2023/03/14 10:48:20;;;;;;;1.85;1.50;;;7.00;58.90;;;;;;5067005;28;20401;-63
2023/03/14 10:50:54;;;;;;;0.00;0.00;;;7.10;58.70;;;;;;5067362;28;20052;-64
2023/03/14 10:53:19;;;;;;;0.65;0.65;;;7.10;60.00;;;;;;5067513;28;20044;-63
2023/03/14 10:55:46;;;;;;;0.95;0.95;;;7.10;62.10;;;;;;5032686;28;20051;-64
2023/03/14 10:58:21;;;;;;;0.00;0.00;;;7.00;61.60;;;;;;5067141;28;20068;-63
2023/03/14 11:00:53;;;;;;;0.10;0.10;;;7.00;59.80;;;;;;5067352;28;20132;-63
2023/03/14 11:03:21;;;;;;;0.45;0.45;;;7.00;61.50;;;;;;5048310;28;20051;-63
2023/03/14 11:06:09;;;;;;;1.30;1.25;;;6.80;58.00;;;;;;5066416;28;20151;-63
2023/03/14 11:09:05;;;;;;;0.00;0.00;;;6.80;57.90;;;;;;5066397;28;20094;-63
2023/03/14 11:11:31;;;;;;;0.00;0.00;;;6.70;57.70;;;;;;5066528;28;20048;-64
2023/03/14 11:14:08;;;;;;;0.00;0.00;;;6.70;57.10;;;;;;5048737;28;20812;-63
2023/03/14 11:16:54;;;;;;;0.00;0.00;;;6.70;55.30;;;;;;5049374;28;20048;-64
2023/03/14 11:19:38;;;;;;;0.80;0.30;;;6.90;54.60;;;;;;5063349;28;20068;-63
2023/03/14 11:22:23;;;;;;;0.40;0.40;;;6.90;55.70;;;;;;5046688;28;20048;-64
2023/03/14 11:25:06;;;;;;;29.10;1.05;;;7.00;56.60;;;;;;5066366;28;20037;-64
2023/03/14 11:27:41;;;;;;;0.00;0.00;;;7.10;55.20;;;;;;5065485;28;20502;-64
2023/03/14 11:30:30;;;;;;;0.22;0.22;;;7.00;54.00;;;;;;5066816;28;20105;-64
2023/03/14 11:33:13;;;;;;;0.77;0.77;;;7.10;54.40;;;;;;5066650;28;20142;-64
2023/03/14 11:36:06;;;;;;;0.22;0.22;;;7.10;52.00;;;;;;5065527;28;20041;-65
2023/03/14 11:38:41;;;;;;;0.00;0.00;;;7.00;53.40;;;;;;5070132;28;20036;-64
2023/03/14 11:41:16;;;;;;;0.00;0.00;;;6.90;53.60;;;;;;5070458;28;20105;-63
2023/03/14 11:43:48;;;;;;;0.22;0.22;;;7.00;55.70;;;;;;5069823;28;20509;-63
2023/03/14 11:46:27;;;;;;;0.00;0.00;;;7.10;54.40;;;;;;5068150;28;20044;-63
2023/03/14 11:48:59;;;;;;;0.00;0.00;;;7.10;54.10;;;;;;5066070;28;20058;-64
2023/03/14 11:51:28;;;;;;;;;;;7.10;55.90;;;;;;5069861;28;20374;-64
2023/03/14 11:53:57;;;;;;;0.00;0.00;;;7.10;56.40;;;;;;5068922;28;19928;-64
2023/03/14 11:56:32;;;;;;;0.00;0.00;;;7.10;56.40;;;;;;5067582;28;20032;-64
2023/03/14 11:59:02;;;;;;;0.00;0.00;;;7.00;58.50;;;;;;5065836;28;20051;-63
2023/03/14 12:01:47;;;;;;;1.33;1.17;;;7.00;58.70;;;;;;5067638;28;20094;-63
2023/03/14 12:04:31;;;;;;;0.00;0.00;;;7.00;56.80;;;;;;5069066;28;20167;-64
2023/03/14 12:07:03;;;;;;;0.00;0.00;;;7.20;58.40;;;;;;5065533;28;20452;-64
2023/03/14 12:09:29;;;;;;;0.00;0.00;;;7.20;58.60;;;;;;5068283;28;20493;-63
2023/03/14 12:12:00;;;;;;;0.00;0.00;;;7.10;57.50;;;;;;5069002;28;20129;-64
2023/03/14 12:14:34;;;;;;;0.00;0.00;;;7.00;55.80;;;;;;5063808;28;20695;-64
2023/03/14 12:17:20;;;;;;;0.00;0.00;;;7.00;56.70;;;;;;5066154;28;20501;-64
2023/03/14 12:19:47;;;;;;;0.00;0.00;;;7.00;58.70;;;;;;5068938;28;20112;-64
2023/03/14 12:22:29;;;;;;;0.00;0.00;;;7.00;57.70;;;;;;5067321;28;20394;-64
2023/03/14 12:24:59;;;;;;;0.47;0.38;;;7.10;54.90;;;;;;5050381;28;20044;-64
2023/03/14 12:27:56;;;;;;;0.00;0.00;;;7.20;53.80;;;;;;5068889;28;20057;-64
2023/03/14 12:30:30;;;;;;;3.38;2.83;;;7.00;56.00;;;;;;5068993;28;20048;-63
2023/03/14 12:33:18;;;;;;;12.68;2.08;;;6.80;55.40;;;;;;5067485;28;20049;-63
2023/03/14 12:35:48;;;;;;;0.47;0.47;;;6.90;51.00;;;;;;5049283;28;20738;-64
2023/03/14 12:38:36;;;;;;;0.43;0.43;;;7.00;52.40;;;;;;5071261;28;20705;-64
2023/03/14 12:41:15;;;;;;;0.08;0.08;;;6.90;52.60;;;;;;5066553;28;20047;-64
2023/03/14 12:43:41;;;;;;;0.00;0.00;;;7.00;50.10;;;;;;5067344;28;20036;-64
2023/03/14 12:46:18;;;;;;;1.38;1.27;;;7.10;51.30;;;;;;5067715;28;20056;-64
2023/03/14 12:48:54;;;;;;;0.00;0.00;;;7.10;53.30;;;;;;5065719;28;20501;-64
2023/03/14 12:51:28;;;;;;;0.00;0.00;;;7.20;54.50;;;;;;5068531;28;20047;-63
2023/03/14 12:54:28;;;;;;;0.00;0.00;;;7.30;53.90;;;;;;5068429;28;20095;-62
2023/03/14 12:57:32;;;;;;;0.00;0.00;;;7.30;53.30;;;;;;5068429;28;20678;-63
2023/03/14 13:00:19;;;;;;;9.65;2.83;;;7.30;51.60;;;;;;5064007;28;20051;-64
2023/03/14 13:02:48;;;;;;;0.00;0.00;;;7.20;53.20;;;;;;5050642;28;20390;-64
2023/03/14 13:05:20;;;;;;;0.10;0.10;;;7.30;55.10;;;;;;5065490;28;20747;-64
2023/03/14 13:07:49;;;;;;;0.00;0.00;;;7.50;53.70;;;;;;5044935;28;20131;-63